createdAt,value
2019-06-07T00:00:50.303Z,3.67
2019-06-07T00:03:28.966Z,3.98
2019-06-07T00:05:48.447Z,3.47
2019-06-07T00:08:24.741Z,3.42
2019-06-07T00:10:46.635Z,3.33
2019-06-07T00:13:17.094Z,3.87
2019-06-07T00:15:44.722Z,3.50
2019-06-07T00:18:14.980Z,3.47
2019-06-07T00:20:42.831Z,3.30
2019-06-07T00:23:12.177Z,3.67
2019-06-07T00:25:40.886Z,4.10
2019-06-07T00:28:10.557Z,3.58
2019-06-07T00:30:50.805Z,3.33
2019-06-07T00:33:10.909Z,3.72
2019-06-07T00:35:38.520Z,3.90
2019-06-07T00:38:06.735Z,3.77
2019-06-07T00:40:34.927Z,3.77
2019-06-07T00:43:03.144Z,3.60
2019-06-07T00:45:31.338Z,3.92
2019-06-07T00:47:59.558Z,3.65
2019-06-07T00:50:27.819Z,3.87
2019-06-07T00:53:14.853Z,3.90
2019-06-07T00:55:27.695Z,3.40
2019-06-07T00:57:55.748Z,3.80
2019-06-07T01:00:25.576Z,3.65
2019-06-07T01:02:53.791Z,3.52
2019-06-07T01:05:28.135Z,4.10
2019-06-07T01:07:51.861Z,4.00
2019-06-07T01:10:46.289Z,3.60
2019-06-07T01:12:49.911Z,4.17
2019-06-07T01:15:22.748Z,3.90
2019-06-07T01:18:33.124Z,3.80
2019-06-07T01:20:22.815Z,4.05
2019-06-07T01:22:49.316Z,4.03
2019-06-07T01:25:18.249Z,4.25
2019-06-07T01:27:47.381Z,4.75
2019-06-07T01:30:16.196Z,5.47
2019-06-07T01:32:44.464Z,5.40
2019-06-07T01:35:12.677Z,4.85
2019-06-07T01:37:40.872Z,4.78
2019-06-07T01:40:09.234Z,4.87
2019-06-07T01:42:37.381Z,5.55
2019-06-07T01:45:06.767Z,5.53
2019-06-07T01:47:34.967Z,5.15
2019-06-07T01:50:04.812Z,5.67
2019-06-07T01:52:33.006Z,6.05
2019-06-07T01:55:01.290Z,6.37
2019-06-07T01:57:44.775Z,5.65
2019-06-07T01:59:59.287Z,6.53
2019-06-07T02:02:29.982Z,5.95
2019-06-07T02:04:57.364Z,6.35
2019-06-07T02:07:29.545Z,6.30
2019-06-07T02:09:55.432Z,6.92
2019-06-07T02:12:31.705Z,5.87
2019-06-07T02:14:53.498Z,6.90
2019-06-07T02:17:25.224Z,6.08
2019-06-07T02:19:51.568Z,6.85
2019-06-07T02:22:21.416Z,6.12
2019-06-07T02:25:33.879Z,6.40
2019-06-07T02:27:20.731Z,6.08
2019-06-07T02:29:49.092Z,6.67
2019-06-07T02:32:17.311Z,5.15
2019-06-07T02:34:45.513Z,5.95
2019-06-07T02:37:13.723Z,6.40
2019-06-07T02:39:41.915Z,6.70
2019-06-07T02:42:10.141Z,6.72
2019-06-07T02:44:39.932Z,6.78
2019-06-07T02:47:08.203Z,6.65
2019-06-07T02:49:41.174Z,7.70
2019-06-07T02:52:06.272Z,7.75
2019-06-07T02:54:39.553Z,7.45
2019-06-07T02:57:04.335Z,7.45
2019-06-07T03:00:02.351Z,7.00
2019-06-07T03:02:02.448Z,8.00
2019-06-07T03:04:36.786Z,7.70
2019-06-07T03:07:00.489Z,7.37
2019-06-07T03:09:30.906Z,7.92
2019-06-07T03:11:58.571Z,8.10
2019-06-07T03:14:26.743Z,7.47
2019-06-07T03:17:05.815Z,8.60
2019-06-07T03:19:37.901Z,8.38
2019-06-07T03:22:05.494Z,7.83
2019-06-07T03:24:36.243Z,7.90
2019-06-07T03:29:36.601Z,7.40
2019-06-07T03:32:05.051Z,7.67
2019-06-07T03:34:39.255Z,7.53
2019-06-07T03:37:03.111Z,8.18
2019-06-07T03:39:31.483Z,7.72
2019-06-07T03:42:06.154Z,7.20
2019-06-07T03:44:33.973Z,7.47
2019-06-07T03:46:59.824Z,7.65
2019-06-07T03:49:30.669Z,7.33
2019-06-07T03:51:57.906Z,7.53
2019-06-07T03:54:27.173Z,7.30
2019-06-07T03:56:55.615Z,8.38
2019-06-07T03:59:23.836Z,7.78
2019-06-07T04:01:52.026Z,7.58
2019-06-07T04:04:20.247Z,6.97
2019-06-07T04:06:48.439Z,7.28
2019-06-07T04:09:16.663Z,6.92
2019-06-07T04:11:44.859Z,7.42
2019-06-07T04:14:13.080Z,7.17
2019-06-07T04:16:44.619Z,6.03
2019-06-07T04:19:11.145Z,5.97
2019-06-07T04:21:42.485Z,5.33
2019-06-07T04:24:09.214Z,5.53
2019-06-07T04:26:42.513Z,6.10
2019-06-07T04:29:32.271Z,5.12
2019-06-07T04:31:41.958Z,5.97
2019-06-07T04:34:06.987Z,5.17
2019-06-07T04:36:45.670Z,5.78
2019-06-07T04:39:06.358Z,5.35
2019-06-07T04:41:36.836Z,6.03
2019-06-07T04:44:04.416Z,5.28
2019-06-07T04:46:35.220Z,5.92
2019-06-07T04:49:03.474Z,5.53
2019-06-07T04:51:32.377Z,6.37
2019-06-07T04:54:01.743Z,6.03
2019-06-07T04:56:30.721Z,5.97
2019-06-07T04:58:59.806Z,6.03
2019-06-07T05:01:30.718Z,6.30
2019-06-07T05:03:57.871Z,6.33
2019-06-07T05:06:26.117Z,6.08
2019-06-07T05:08:54.303Z,6.35
2019-06-07T05:11:22.524Z,5.80
2019-06-07T05:13:50.782Z,6.50
2019-06-07T05:16:18.948Z,6.00
2019-06-07T05:18:47.145Z,6.90
2019-06-07T05:21:15.364Z,7.33
2019-06-07T05:24:05.914Z,6.97
2019-06-07T05:26:13.428Z,7.42
2019-06-07T05:28:43.020Z,8.30
2019-06-07T05:31:11.443Z,8.28
2019-06-07T05:33:41.230Z,6.70
2019-06-07T05:36:09.511Z,7.22
2019-06-07T05:38:41.162Z,8.30
2019-06-07T05:41:07.579Z,8.00
2019-06-07T05:43:39.299Z,8.23
2019-06-07T05:46:05.654Z,9.08
2019-06-07T05:48:34.215Z,8.68
2019-06-07T05:51:02.515Z,9.63
2019-06-07T05:53:31.691Z,8.50
2019-06-07T05:56:00.582Z,9.10
2019-06-07T05:58:28.832Z,8.70
2019-06-07T06:01:40.904Z,9.65
2019-06-07T06:03:27.117Z,8.70
2019-06-07T06:05:55.802Z,8.98
2019-06-07T06:08:24.385Z,7.60
2019-06-07T06:10:52.575Z,8.15
2019-06-07T06:13:20.804Z,7.87
2019-06-07T06:16:00.604Z,7.67
2019-06-07T06:18:18.879Z,7.75
2019-06-07T06:21:11.809Z,8.35
2019-06-07T06:23:16.963Z,8.10
2019-06-07T06:25:53.271Z,7.72
2019-06-07T06:28:16.032Z,8.63
2019-06-07T06:30:47.948Z,7.83
2019-06-07T06:33:30.601Z,8.28
2019-06-07T06:35:48.888Z,8.20
2019-06-07T06:38:15.275Z,7.08
2019-06-07T06:40:47.068Z,7.20
2019-06-07T06:43:13.438Z,6.87
2019-06-07T06:45:42.869Z,8.18
2019-06-07T06:48:11.503Z,7.42
2019-06-07T06:50:41.097Z,7.50
2019-06-07T06:53:09.427Z,7.35
2019-06-07T06:55:38.998Z,7.53
2019-06-07T06:58:07.340Z,6.87
2019-06-07T07:00:50.259Z,5.67
2019-06-07T07:05:44.061Z,7.00
2019-06-07T07:08:13.112Z,6.53
2019-06-07T07:10:43.249Z,4.95
2019-06-07T07:13:11.521Z,6.65
2019-06-07T07:15:39.748Z,5.60
2019-06-07T07:18:08.990Z,5.53
2019-06-07T07:20:37.359Z,5.30
2019-06-07T07:23:05.626Z,5.05
2019-06-07T07:25:33.847Z,4.87
2019-06-07T07:28:02.080Z,3.72
2019-06-07T07:30:44.809Z,4.47
2019-06-07T07:33:13.183Z,4.72
2019-06-07T07:36:04.743Z,5.75
2019-06-07T07:38:11.269Z,5.53
2019-06-07T07:43:09.460Z,5.30
2019-06-07T07:45:37.652Z,4.87
2019-06-07T07:48:15.572Z,5.22
2019-06-07T07:50:35.739Z,4.53
2019-06-07T07:53:04.251Z,5.25
2019-06-07T07:55:32.611Z,4.78
2019-06-07T07:58:01.959Z,5.05
2019-06-07T08:00:52.199Z,3.80
2019-06-07T08:03:04.357Z,3.87
2019-06-07T08:05:42.399Z,4.72
2019-06-07T08:08:01.451Z,4.60
2019-06-07T08:10:29.798Z,4.20
2019-06-07T08:13:22.141Z,4.47
2019-06-07T08:15:27.940Z,4.15
2019-06-07T08:18:01.142Z,4.25
2019-06-07T08:20:26.048Z,4.50
2019-06-07T08:22:57.769Z,5.35
2019-06-07T08:25:24.095Z,4.58
2019-06-07T08:27:55.598Z,3.90
2019-06-07T08:32:57.575Z,5.12
2019-06-07T08:36:03.260Z,3.98
2019-06-07T08:40:21.608Z,4.30
2019-06-07T08:43:10.291Z,5.25
2019-06-07T08:45:19.671Z,4.83
2019-06-07T08:47:47.867Z,4.80
2019-06-07T08:50:16.090Z,4.97
2019-06-07T08:52:44.279Z,4.42
2019-06-07T08:55:12.500Z,4.00
2019-06-07T08:57:40.699Z,5.15
2019-06-07T09:00:42.510Z,4.85
2019-06-07T09:02:39.155Z,5.10
2019-06-07T09:05:12.199Z,4.30
2019-06-07T09:07:38.691Z,4.37
2019-06-07T09:10:13.432Z,3.60
2019-06-07T09:12:37.403Z,3.12
2019-06-07T09:15:20.992Z,4.72
2019-06-07T09:17:35.668Z,3.60
2019-06-07T09:20:09.460Z,3.67
2019-06-07T09:22:34.930Z,3.90
2019-06-07T09:25:12.241Z,3.90
2019-06-07T09:27:33.764Z,3.55
2019-06-07T09:30:07.678Z,3.52
2019-06-07T09:32:31.872Z,3.27
2019-06-07T09:35:05.403Z,3.60
2019-06-07T09:40:10.316Z,3.42
2019-06-07T09:42:29.635Z,4.40
2019-06-07T09:45:02.070Z,3.65
2019-06-07T09:47:32.434Z,3.15
2019-06-07T09:50:02.358Z,4.50
2019-06-07T09:52:27.453Z,3.40
2019-06-07T09:55:09.362Z,4.28
2019-06-07T09:57:25.540Z,4.55
2019-06-07T09:59:53.732Z,4.40
2019-06-07T10:02:21.964Z,4.05
2019-06-07T10:04:50.156Z,4.42
2019-06-07T10:07:31.346Z,4.12
2019-06-07T10:12:18.228Z,3.62
2019-06-07T10:14:46.424Z,3.37
2019-06-07T10:17:14.654Z,3.55
2019-06-07T10:19:42.840Z,4.45
2019-06-07T10:22:11.062Z,4.05
2019-06-07T10:24:39.250Z,3.65
2019-06-07T10:27:07.961Z,4.22
2019-06-07T10:29:36.166Z,3.95
2019-06-07T10:32:04.551Z,3.83
2019-06-07T10:34:32.778Z,3.52
2019-06-07T10:37:03.315Z,3.42
2019-06-07T10:39:30.871Z,4.37
2019-06-07T10:41:59.107Z,3.37
2019-06-07T10:44:27.283Z,3.00
2019-06-07T10:46:59.077Z,4.10
2019-06-07T10:49:25.380Z,4.65
2019-06-07T10:51:53.555Z,4.00
2019-06-07T10:54:29.509Z,4.33
2019-06-07T10:56:51.616Z,3.67
2019-06-07T10:59:19.848Z,3.52
2019-06-07T11:01:48.039Z,3.10
2019-06-07T11:04:16.247Z,3.58
2019-06-07T11:06:44.443Z,3.50
2019-06-07T11:09:14.125Z,3.12
2019-06-07T11:11:42.511Z,3.37
2019-06-07T11:14:10.796Z,3.05
2019-06-07T11:16:39.023Z,4.03
2019-06-07T11:19:08.063Z,4.00
2019-06-07T11:21:36.332Z,3.20
2019-06-07T11:24:04.539Z,3.45
2019-06-07T11:26:32.784Z,3.58
2019-06-07T11:29:00.987Z,4.70
2019-06-07T11:31:29.250Z,4.37
2019-06-07T11:33:57.449Z,4.47
2019-06-07T11:36:25.650Z,3.90
2019-06-07T11:38:53.940Z,3.37
2019-06-07T11:41:22.203Z,8.33
2019-06-07T11:43:50.478Z,4.20
2019-06-07T11:46:18.775Z,5.35
2019-06-07T11:48:47.015Z,5.87
2019-06-07T11:51:15.216Z,10.80
2019-06-07T11:53:43.428Z,3.20
2019-06-07T11:56:11.920Z,3.90
2019-06-07T11:58:40.243Z,3.65
2019-06-07T12:01:09.598Z,3.45
2019-06-07T12:03:37.951Z,3.20
2019-06-07T12:06:06.147Z,3.50
2019-06-07T12:08:34.383Z,2.92
2019-06-07T12:11:02.588Z,3.72
2019-06-07T12:13:30.877Z,3.30
2019-06-07T12:15:59.080Z,3.47
2019-06-07T12:18:27.306Z,3.22
2019-06-07T12:20:55.498Z,3.47
2019-06-07T12:23:23.715Z,3.50
2019-06-07T12:25:51.954Z,3.52
2019-06-07T12:28:21.007Z,3.20
2019-06-07T12:30:49.446Z,3.15
2019-06-07T12:33:17.861Z,8.63
2019-06-07T12:35:46.066Z,4.12
2019-06-07T12:38:14.658Z,3.33
2019-06-07T12:40:56.763Z,3.80
2019-06-07T12:43:14.556Z,4.20
2019-06-07T12:45:45.742Z,2.98
2019-06-07T12:48:18.551Z,3.30
2019-06-07T12:50:44.136Z,3.33
2019-06-07T12:53:13.623Z,3.52
2019-06-07T12:55:41.931Z,3.10
2019-06-07T12:58:10.153Z,3.05
2019-06-07T13:00:38.371Z,3.95
2019-06-07T13:03:06.584Z,2.95
2019-06-07T13:05:34.857Z,3.17
2019-06-07T13:08:03.041Z,3.05
2019-06-07T13:10:31.269Z,3.40
2019-06-07T13:12:59.474Z,3.27
2019-06-07T13:15:28.332Z,3.37
2019-06-07T13:17:56.595Z,3.67
2019-06-07T13:20:24.860Z,3.90
2019-06-07T13:22:53.057Z,3.60
2019-06-07T13:25:23.413Z,3.37
2019-06-07T13:27:51.194Z,3.17
2019-06-07T13:30:20.782Z,3.05
2019-06-07T13:32:49.415Z,3.25
2019-06-07T13:35:18.903Z,5.17
2019-06-07T13:37:47.525Z,3.55
2019-06-07T13:40:16.393Z,3.25
2019-06-07T13:42:44.725Z,3.30
2019-06-07T13:45:12.964Z,3.65
2019-06-07T13:47:41.184Z,3.22
2019-06-07T13:50:09.380Z,3.17
2019-06-07T13:52:37.855Z,3.00
2019-06-07T13:55:06.086Z,3.12
2019-06-07T13:57:34.371Z,3.45
2019-06-07T14:00:10.488Z,2.90
2019-06-07T14:02:32.483Z,3.62
2019-06-07T14:05:00.706Z,3.02
2019-06-07T14:07:30.093Z,3.10
2019-06-07T14:09:58.430Z,3.10
2019-06-07T14:12:27.742Z,3.30
2019-06-07T14:14:56.059Z,3.40
2019-06-07T14:17:25.294Z,3.15
2019-06-07T14:19:53.696Z,3.25
2019-06-07T14:22:22.718Z,3.30
2019-06-07T14:24:51.091Z,3.42
2019-06-07T14:27:19.303Z,3.42
2019-06-07T14:29:47.526Z,3.70
2019-06-07T14:32:16.642Z,3.33
2019-06-07T14:34:44.851Z,3.52
2019-06-07T14:37:13.106Z,3.40
2019-06-07T14:39:41.310Z,3.90
2019-06-07T14:42:10.385Z,10.40
2019-06-07T14:44:38.903Z,2.85
2019-06-07T14:47:07.181Z,3.52
2019-06-07T14:49:35.395Z,3.72
2019-06-07T14:52:04.031Z,3.50
2019-06-07T14:54:36.137Z,3.08
2019-06-07T14:57:03.426Z,3.02
2019-06-07T14:59:32.738Z,3.52
2019-06-07T15:02:01.178Z,3.05
2019-06-07T15:04:30.587Z,3.52
2019-06-07T15:06:59.019Z,2.72
2019-06-07T15:09:28.863Z,2.90
2019-06-07T15:11:57.316Z,2.60
2019-06-07T15:14:25.580Z,3.10
2019-06-07T15:16:53.833Z,3.22
2019-06-07T15:19:24.147Z,3.70
2019-06-07T15:21:52.104Z,3.70
2019-06-07T15:24:20.367Z,4.00
2019-06-07T15:26:48.554Z,2.98
2019-06-07T15:29:16.754Z,3.42
2019-06-07T15:31:45.008Z,3.77
2019-06-07T15:34:13.282Z,3.10
2019-06-07T15:36:41.581Z,3.40
2019-06-07T15:39:09.902Z,3.20
2019-06-07T15:41:39.736Z,3.02
2019-06-07T15:44:08.244Z,3.30
2019-06-07T15:46:37.783Z,3.00
2019-06-07T15:49:06.236Z,3.47
2019-06-07T15:51:34.532Z,3.47
2019-06-07T15:54:02.873Z,3.58
2019-06-07T15:56:31.065Z,3.80
2019-06-07T15:58:59.263Z,3.67
2019-06-07T16:01:27.661Z,3.40
2019-06-07T16:03:55.923Z,3.35
2019-06-07T16:06:24.123Z,3.35
2019-06-07T16:08:52.344Z,3.60
2019-06-07T16:11:20.543Z,3.75
2019-06-07T16:13:48.779Z,3.65
2019-06-07T16:16:17.370Z,3.77
2019-06-07T16:18:45.721Z,3.37
2019-06-07T16:21:17.758Z,3.90
2019-06-07T16:23:45.336Z,4.22
2019-06-07T16:26:13.763Z,4.08
2019-06-07T16:28:42.525Z,3.52
2019-06-07T16:31:10.775Z,3.47
2019-06-07T16:33:38.973Z,3.72
2019-06-07T16:36:07.996Z,3.90
2019-06-07T16:38:36.320Z,4.30
2019-06-07T16:41:04.990Z,3.62
2019-06-07T16:43:36.557Z,4.10
2019-06-07T16:46:04.992Z,3.87
2019-06-07T16:48:33.183Z,4.22
2019-06-07T16:51:01.400Z,4.53
2019-06-07T16:53:29.870Z,3.67
2019-06-07T16:55:58.923Z,3.90
2019-06-07T16:58:27.151Z,3.22
2019-06-07T17:00:55.421Z,3.92
2019-06-07T17:03:23.690Z,3.58
2019-06-07T17:05:51.884Z,3.50
2019-06-07T17:08:20.104Z,3.58
2019-06-07T17:10:49.103Z,3.33
2019-06-07T17:13:32.549Z,3.35
2019-06-07T17:15:47.365Z,3.45
2019-06-07T17:18:15.681Z,3.95
2019-06-07T17:20:45.207Z,3.87
2019-06-07T17:23:13.549Z,3.30
2019-06-07T17:25:41.843Z,3.42
2019-06-07T17:28:10.461Z,3.67
2019-06-07T17:30:39.766Z,3.27
2019-06-07T17:33:08.121Z,3.62
2019-06-07T17:35:36.312Z,3.30
2019-06-07T17:38:04.603Z,3.95
2019-06-07T17:40:32.796Z,3.98
2019-06-07T17:43:01.016Z,4.50
2019-06-07T17:45:29.211Z,5.45
2019-06-07T17:47:57.444Z,3.98
2019-06-07T17:50:25.663Z,3.62
2019-06-07T17:52:53.874Z,4.30
2019-06-07T17:55:22.121Z,4.00
2019-06-07T17:57:50.931Z,3.95
2019-06-07T18:00:34.565Z,5.10
2019-06-07T18:02:49.206Z,4.45
2019-06-07T18:05:17.427Z,4.00
2019-06-07T18:07:47.624Z,3.98
2019-06-07T18:10:17.622Z,3.95
2019-06-07T18:12:46.064Z,4.03
2019-06-07T18:15:14.451Z,4.10
2019-06-07T18:17:42.644Z,4.50
2019-06-07T18:20:11.006Z,4.50
2019-06-07T18:22:39.171Z,4.33
2019-06-07T18:25:07.458Z,4.28
2019-06-07T18:27:35.648Z,4.40
2019-06-07T18:30:11.369Z,4.03
2019-06-07T18:32:35.687Z,4.30
2019-06-07T18:35:04.382Z,4.72
2019-06-07T18:37:32.573Z,4.75
2019-06-07T18:40:00.898Z,4.83
2019-06-07T18:42:29.091Z,4.75
2019-06-07T18:44:57.308Z,4.78
2019-06-07T18:47:25.499Z,4.70
2019-06-07T18:49:53.696Z,5.42
2019-06-07T18:52:23.550Z,5.60
2019-06-07T18:54:52.988Z,4.75
2019-06-07T18:57:21.375Z,5.55
2019-06-07T18:59:50.174Z,5.03
2019-06-07T19:02:18.427Z,5.42
2019-06-07T19:04:47.905Z,5.10
2019-06-07T19:07:16.219Z,5.17
2019-06-07T19:09:44.415Z,5.03
2019-06-07T19:12:12.758Z,5.00
2019-06-07T19:14:40.960Z,5.10
2019-06-07T19:17:09.196Z,5.30
2019-06-07T19:19:37.393Z,6.08
2019-06-07T19:22:05.627Z,5.55
2019-06-07T19:24:33.828Z,7.10
2019-06-07T19:27:02.047Z,5.22
2019-06-07T19:29:30.260Z,5.72
2019-06-07T19:31:59.080Z,6.08
2019-06-07T19:34:27.370Z,6.47
2019-06-07T19:36:55.718Z,6.95
2019-06-07T19:39:23.992Z,6.83
2019-06-07T19:41:52.186Z,5.72
2019-06-07T19:44:20.404Z,7.12
2019-06-07T19:46:48.676Z,6.75
2019-06-07T19:49:16.898Z,8.13
2019-06-07T19:51:45.105Z,6.67
2019-06-07T19:54:13.328Z,9.00
2019-06-07T19:56:41.529Z,8.78
2019-06-07T19:59:09.757Z,6.53
2019-06-07T20:01:37.952Z,6.40
2019-06-07T20:04:06.177Z,6.83
2019-06-07T20:06:34.384Z,6.50
2019-06-07T20:09:02.952Z,6.70
2019-06-07T20:11:31.277Z,7.05
2019-06-07T20:14:00.516Z,6.55
2019-06-07T20:16:29.108Z,7.42
2019-06-07T20:18:58.147Z,7.05
2019-06-07T20:21:26.436Z,7.08
2019-06-07T20:23:54.704Z,7.45
2019-06-07T20:26:22.925Z,7.95
2019-06-07T20:28:51.167Z,8.58
2019-06-07T20:31:19.394Z,9.55
2019-06-07T20:33:47.611Z,7.95
2019-06-07T20:36:15.851Z,7.15
2019-06-07T20:38:44.015Z,7.20
2019-06-07T20:41:12.239Z,6.78
2019-06-07T20:43:40.441Z,8.10
2019-06-07T20:46:08.660Z,6.00
2019-06-07T20:48:36.870Z,6.30
2019-06-07T20:51:06.402Z,4.53
2019-06-07T20:53:34.679Z,4.42
2019-06-07T20:56:02.905Z,4.15
2019-06-07T20:58:31.103Z,4.17
2019-06-07T21:01:00.545Z,4.15
2019-06-07T21:03:28.819Z,4.17
2019-06-07T21:05:57.044Z,3.95
2019-06-07T21:08:25.226Z,4.55
2019-06-07T21:10:53.461Z,3.85
2019-06-07T21:13:21.760Z,3.67
2019-06-07T21:15:49.952Z,3.80
2019-06-07T21:18:19.994Z,3.40
2019-06-07T21:20:48.019Z,3.30
2019-06-07T21:23:16.244Z,3.55
2019-06-07T21:25:44.476Z,2.75
2019-06-07T21:28:12.662Z,2.10
2019-06-07T21:30:40.873Z,1.95
2019-06-07T21:33:09.727Z,2.72
2019-06-07T21:35:37.984Z,2.35
2019-06-07T21:38:06.281Z,2.40
2019-06-07T21:40:34.481Z,2.30
2019-06-07T21:43:04.141Z,2.30
2019-06-07T21:45:32.492Z,2.22
2019-06-07T21:48:03.149Z,1.98
2019-06-07T21:50:30.555Z,1.70
2019-06-07T21:52:58.772Z,1.65
2019-06-07T21:55:26.964Z,1.90
2019-06-07T21:57:55.254Z,1.80
2019-06-07T22:00:26.443Z,1.80
2019-06-07T22:02:54.828Z,1.42
2019-06-07T22:05:23.042Z,1.12
2019-06-07T22:07:51.234Z,1.30
2019-06-07T22:10:19.455Z,1.95
2019-06-07T22:12:47.679Z,1.32
2019-06-07T22:15:32.084Z,1.15
2019-06-07T22:17:45.835Z,1.22
2019-06-07T22:20:14.746Z,1.40
2019-06-07T22:22:42.992Z,1.30
2019-06-07T22:25:11.211Z,1.20
2019-06-07T22:27:39.412Z,1.92
2019-06-07T22:30:08.445Z,1.27
2019-06-07T22:32:36.931Z,1.30
2019-06-07T22:35:06.727Z,1.47
2019-06-07T22:37:35.123Z,0.72
2019-06-07T22:40:06.156Z,1.02
2019-06-07T22:42:34.409Z,1.00
2019-06-07T22:45:02.623Z,0.80
2019-06-07T22:47:30.817Z,0.90
2019-06-07T22:49:59.044Z,0.90
2019-06-07T22:52:27.236Z,1.17
2019-06-07T22:54:55.456Z,0.72
2019-06-07T22:57:25.287Z,1.00
2019-06-07T22:59:53.507Z,1.62
2019-06-07T23:02:21.695Z,0.72
2019-06-07T23:04:49.918Z,0.90
2019-06-07T23:07:19.191Z,1.00
2019-06-07T23:09:47.552Z,1.80
2019-06-07T23:12:15.770Z,0.82
2019-06-07T23:14:43.968Z,0.95
2019-06-07T23:17:13.741Z,1.30
2019-06-07T23:19:42.079Z,0.98
2019-06-07T23:22:10.317Z,0.80
2019-06-07T23:24:38.483Z,1.10
2019-06-07T23:27:06.711Z,1.00
2019-06-07T23:29:34.916Z,1.22
2019-06-07T23:32:03.135Z,1.00
2019-06-07T23:34:31.319Z,1.20
2019-06-07T23:36:59.537Z,0.80
2019-06-07T23:39:27.735Z,1.22
2019-06-07T23:41:55.947Z,1.55
2019-06-07T23:44:24.140Z,0.93
2019-06-07T23:46:52.364Z,1.10
2019-06-07T23:49:22.378Z,0.60
2019-06-07T23:51:50.414Z,1.25
2019-06-07T23:54:19.816Z,0.80
2019-06-07T23:56:48.223Z,0.90
2019-06-07T23:59:16.425Z,1.22
